• Join FlightAware (Why Join?)
  • Login
  • US Flag 
06:00PM EDT


 

Airport Tracker/Info


-or-


 

Live Flight TrackerFlight Track Log ✈ N615DL ✈ 14-May-2012 ✈ KTPA - KATL

Flight Track Log - Related Links

Times and Time Zones

All times are in EDT time to prevent confusion due to time zone crossing. See the N615DL flight status page for this flight to view local times or setup timezone preferences in your user account.

Time Position Orientation Groundspeed Altitude Reporting Facility
EDT Latitude Longitude Course Direction KTS MPH feet Rate Location/Type
11:08AM 27.9667 -82.5500 192° South 165 190 900  Level Tampa TRACON
11:10AM 27.9000 -82.5667 281° West 222 255 3,500 2,580 Climbing Tampa TRACON
11:11AM 27.9161 -82.6625 346° North 237 273 8,900 2,580 Climbing Jacksonville Center
11:12AM 28.0017 -82.6858 347° North 228 262 10,900 2,100 Climbing Jacksonville Center
11:13AM 28.0997 -82.7114 348° North 316 364 13,200 2,280 Climbing Jacksonville Center
11:14AM 28.2061 -82.7372 348° North 348 400 15,500 2,400 Climbing Jacksonville Center
11:15AM 28.3211 -82.7653 349° North 372 428 18,000 2,220 Climbing Jacksonville Center
11:16AM 28.4358 -82.7911 352° North 393 452 20,000 1,860 Climbing Jacksonville Center
11:17AM 28.5547 -82.8100 349° North 414 476 21,800 1,740 Climbing Jacksonville Center
11:18AM 28.6758 -82.8358 345° North 433 498 23,500 1,740 Climbing Jacksonville Center
11:19AM 28.7864 -82.8689 333° Northwest 443 510 25,300 2,100 Climbing Jacksonville Center
11:20AM 28.8908 -82.9306 332° Northwest 436 502 27,800 1,800 Climbing Jacksonville Center
11:21AM 29.0056 -83.0017 331° Northwest 431 496 28,900 1,080 Climbing Jacksonville Center
11:22AM 29.1161 -83.0708 331° Northwest 441 507 30,000 1,020 Climbing Jacksonville Center
11:23AM 29.2286 -83.1425 332° Northwest 446 513 31,000 960 Climbing Jacksonville Center
11:24AM 29.3433 -83.2119 331° Northwest 452 520 32,000 660 Climbing Jacksonville Center
11:25AM 29.4558 -83.2836 332° Northwest 458 527 32,400 900 Climbing Jacksonville Center
11:26AM 29.5706 -83.3533 331° Northwest 463 533 33,900 780 Climbing Jacksonville Center
11:27AM 29.6850 -83.4256 332° Northwest 463 533 34,000  Climbing Jacksonville Center
11:28AM 29.7975 -83.4933 332° Northwest 457 526 34,000  Level Jacksonville Center
11:29AM 29.9097 -83.5636 332° Northwest 457 526 34,000  Level Jacksonville Center
11:30AM 30.0222 -83.6339 332° Northwest 457 526 34,000  Level Jacksonville Center
11:31AM 30.1325 -83.7019 333° Northwest 457 526 34,000  Level Jacksonville Center
11:32AM 30.2447 -83.7678 330° Northwest 457 526 34,000  Level Jacksonville Center
11:33AM 30.3547 -83.8411 332° Northwest 457 526 34,000  Level Jacksonville Center
11:34AM 30.4650 -83.9097 333° Northwest 457 526 34,000  Level Jacksonville Center
11:35AM 30.5625 -83.9686 331° Northwest 449 517 34,000  Level Jacksonville Center
11:36AM 30.6686 -84.0375 332° Northwest 442 509 34,000  Level Jacksonville Center
11:37AM 30.7786 -84.1064 331° Northwest 442 509 34,000  Level Jacksonville Center
11:38AM 30.8864 -84.1756 331° Northwest 442 509 34,000  Level Jacksonville Center
11:39AM 30.9942 -84.2450 331° Northwest 442 509 34,000  Level Jacksonville Center
11:40AM 31.1042 -84.3169 331° Northwest 437 503 34,000  Level Jacksonville Center
11:43AM 31.3889 -84.5011 332° Northwest 433 498 34,000  Level Atlanta Center
11:44AM 31.4992 -84.5697 331° Northwest 438 504 34,000 -540 Level Atlanta Center
11:45AM 31.6094 -84.6411 340° North 438 504 33,000 -1,200 Descending Atlanta Center
11:46AM 31.7322 -84.6933 349° North 448 516 31,700 -1,320 Descending Atlanta Center
11:47AM 31.8594 -84.7211 348° North 463 533 30,400 -1,380 Descending Atlanta Center
11:48AM 31.9908 -84.7539 349° North 463 533 29,000 -1,500 Descending Atlanta Center
11:49AM 32.1200 -84.7844 350° North 468 539 27,400 -1,500 Descending Atlanta Center
11:50AM 32.2494 -84.8125 351° North 473 544 26,100 -1,260 Descending Atlanta Center
11:51AM 32.3806 -84.8381 348° North 468 539 24,900 -1,140 Descending Atlanta Center
11:52AM 32.5078 -84.8689 349° North 468 539 23,900 -1,140 Descending Atlanta Center
11:53AM 32.6328 -84.8972 349° North 468 539 22,700 -1,080 Descending Atlanta Center
11:54AM 32.7494 -84.9231 346° North 444 511 21,800 -960 Descending Atlanta Center
11:55AM 32.8558 -84.9539 348° North 436 502 20,800 -2,100 Descending Atlanta Center
11:57AM 33.1000 -85.0167 North 412 474 15,600 -2,340 Descending Atlanta TRACON
11:58AM 33.2000 -85.0000 45° Northeast 404 465 14,100 -1,200 Descending Atlanta TRACON
11:59AM 33.2883 -84.8936 49° Northeast 375 432 13,200 -900 Descending Atlanta Center
12:00PM 33.3619 -84.7925 49° Northeast 380 437 12,300 -600 Descending Atlanta Center
12:01PM 33.4292 -84.7008 47° Northeast 378 435 12,000 -180 Descending Atlanta Center
12:02PM 33.4881 -84.6242 49° Northeast 333 383 12,000 -480 Level Atlanta Center
12:03PM 33.5364 -84.5572 85° East 277 319 11,100 -1,140 Descending Atlanta Center
12:04PM 33.5431 -84.4700 88° East 243 280 9,800 -1,560 Descending Atlanta Center
12:07PM 33.5500 -84.2167 90° East 240 276 5,000 -1,500 Descending Atlanta TRACON
12:08PM 33.5500 -84.1333 16° North 229 264 3,900 -780 Descending Atlanta TRACON
12:09PM 33.6000 -84.1167 301° West 229 264 3,500 -240 Descending Atlanta TRACON
12:10PM 33.6333 -84.1833 270° West 215 247 3,500  Level Atlanta TRACON
12:11PM 33.6333 -84.2500 270° West 216 249 3,500 -420 Level Atlanta TRACON
12:12PM 33.6333 -84.3167 270° West 187 215 2,700 -840 Descending Atlanta TRACON
12:13PM 33.6333 -84.3667 270° West 146 168 1,900 -840 Descending Atlanta TRACON
12:20PM 33.6333 -84.4167 290° West  Level FlightAware Approximate
12:21PM 33.6696 -84.5387 110° East  Level Estimated
12:22PM 33.6333 -84.4167 110° East  Level FlightAware Approximate